Etihad Airways Virtual Airport Information Service

Bahrain International Airport

ICAO: OBBI Country: Bahrain
Latitude: 26.2708 Longitude: 50.6336
Latest Arrival : GFA222 (OKBK-OBBI) Latest Departure : ETDJUMP (OBBI-OMAA)


WX CaptureLIVE
Data provided by noaa.gov | Recorded at 06:55:49

METAR : OBBI 150630Z 33020KT CAVOK 27/13 Q1014 NOSIG

TAF : OBBI 150500Z 1506/1612 34017G27KT CAVOK= OKBK 150445Z 1506/1612 34015G25KT 7000 NSC TEMPO 1506/1512 4000 BLDU


Runway Data for OBBI
Data provided by openaviationdata.com

Runway ID Mag Var Hdg Length Elevation Surface ILS Freq ILS Id ILS Slope

Bahrain International Airport, Bahrain
Use only for reference purposes